createdAt,value
2022-12-22T00:01:17.971Z,32.80
2022-12-22T00:04:03.325Z,32.07
2022-12-22T00:06:49.334Z,33.40
2022-12-22T00:09:34.812Z,32.77
2022-12-22T00:12:20.639Z,31.97
2022-12-22T00:15:07.864Z,33.63
2022-12-22T00:17:58.519Z,32.47
2022-12-22T00:20:47.143Z,31.93
2022-12-22T00:23:32.450Z,31.90
2022-12-22T00:26:18.127Z,32.47
2022-12-22T00:29:03.342Z,31.90
2022-12-22T00:31:49.037Z,30.90
2022-12-22T00:34:40.523Z,31.93
2022-12-22T00:37:30.392Z,32.07
2022-12-22T00:40:16.526Z,30.27
2022-12-22T00:43:01.898Z,31.53
2022-12-22T00:45:47.734Z,31.37
2022-12-22T00:48:45.814Z,29.50
2022-12-22T00:51:31.527Z,32.20
2022-12-22T00:54:17.001Z,30.97
2022-12-22T00:57:02.483Z,31.57
2022-12-22T00:59:48.431Z,30.80
2022-12-22T01:02:34.226Z,31.17
2022-12-22T01:05:19.530Z,30.80
2022-12-22T01:08:04.950Z,30.70
2022-12-22T01:10:50.713Z,31.80
2022-12-22T01:13:36.259Z,30.27
2022-12-22T01:16:21.755Z,32.10
2022-12-22T01:19:07.090Z,30.87
2022-12-22T01:21:52.358Z,30.87
2022-12-22T01:24:38.139Z,31.63
2022-12-22T01:27:23.789Z,31.40
2022-12-22T01:30:09.142Z,32.10
2022-12-22T01:32:54.479Z,30.53
2022-12-22T01:35:43.151Z,31.30
2022-12-22T01:38:28.572Z,29.40
2022-12-22T01:41:15.768Z,30.63
2022-12-22T01:44:00.973Z,31.90
2022-12-22T01:46:52.845Z,30.50
2022-12-22T01:49:48.720Z,30.83
2022-12-22T01:52:37.941Z,30.07
2022-12-22T01:55:30.980Z,29.80
2022-12-22T01:58:17.297Z,30.13
2022-12-22T02:01:05.656Z,30.07
2022-12-22T02:03:51.077Z,28.67
2022-12-22T02:07:00.814Z,29.13
2022-12-22T02:10:06.969Z,29.90
2022-12-22T02:13:15.341Z,28.80
2022-12-22T02:16:18.008Z,29.03
2022-12-22T02:19:12.600Z,29.23
2022-12-22T02:22:17.284Z,29.20
2022-12-22T02:25:08.701Z,28.20
2022-12-22T02:27:58.032Z,28.93
2022-12-22T02:30:44.939Z,29.07
2022-12-22T02:33:31.578Z,28.43
2022-12-22T02:36:26.394Z,29.20
2022-12-22T02:39:27.371Z,28.43
2022-12-22T02:42:12.618Z,28.87
2022-12-22T02:45:39.040Z,28.07
2022-12-22T02:48:39.204Z,28.20
2022-12-22T02:51:28.505Z,28.60
2022-12-22T02:54:15.492Z,29.23
2022-12-22T02:57:02.877Z,29.30
2022-12-22T02:59:48.163Z,31.47
2022-12-22T03:02:33.750Z,30.07
2022-12-22T03:05:19.210Z,28.80
2022-12-22T03:08:08.556Z,29.47
2022-12-22T03:10:54.648Z,29.30
2022-12-22T03:13:39.986Z,29.13
2022-12-22T03:16:25.477Z,29.60
2022-12-22T03:19:10.692Z,29.70
2022-12-22T03:21:56.312Z,30.10
2022-12-22T03:24:41.532Z,29.17
2022-12-22T03:27:08.433Z,29.63
2022-12-22T03:29:35.235Z,29.30
2022-12-22T03:32:02.142Z,28.87
2022-12-22T03:34:28.975Z,30.87
2022-12-22T03:36:55.774Z,29.20
2022-12-22T03:39:22.616Z,29.87
2022-12-22T03:42:07.888Z,30.50
2022-12-22T03:44:53.297Z,28.23
2022-12-22T03:47:20.163Z,28.33
2022-12-22T03:49:47.016Z,28.37
2022-12-22T03:52:13.866Z,29.93
2022-12-22T03:54:40.705Z,27.57
2022-12-22T03:57:07.631Z,29.37
2022-12-22T03:59:34.579Z,28.93
2022-12-22T04:02:01.759Z,28.47
2022-12-22T04:04:28.693Z,29.90
2022-12-22T04:06:55.681Z,27.13
2022-12-22T04:09:22.795Z,26.83
2022-12-22T04:12:08.597Z,27.47
2022-12-22T04:14:35.796Z,29.90
2022-12-22T04:17:04.795Z,28.17
2022-12-22T04:19:32.273Z,28.27
2022-12-22T04:21:59.475Z,27.23
2022-12-22T04:24:26.574Z,27.50
2022-12-22T04:26:53.532Z,27.93
2022-12-22T04:29:20.471Z,27.87
2022-12-22T04:31:47.392Z,26.97
2022-12-22T04:34:14.357Z,28.50
2022-12-22T04:36:41.180Z,27.80
2022-12-22T04:39:08.133Z,28.20
2022-12-22T04:41:35.264Z,27.87
2022-12-22T04:44:02.152Z,27.20
2022-12-22T04:46:29.047Z,28.43
2022-12-22T04:48:59.847Z,28.27
2022-12-22T04:51:28.750Z,28.03
2022-12-22T04:53:55.748Z,27.43
2022-12-22T04:56:22.599Z,28.20
2022-12-22T04:58:49.443Z,28.20
2022-12-22T05:01:17.984Z,27.10
2022-12-22T05:03:45.463Z,28.83
2022-12-22T05:06:12.883Z,27.23
2022-12-22T05:08:39.984Z,27.80
2022-12-22T05:11:07.418Z,27.97
2022-12-22T05:13:34.411Z,27.97
2022-12-22T05:16:13.029Z,27.80
2022-12-22T05:18:41.103Z,27.17
2022-12-22T05:21:11.970Z,28.70
2022-12-22T05:23:39.327Z,27.43
2022-12-22T05:26:06.818Z,28.57
2022-12-22T05:28:33.876Z,28.70
2022-12-22T05:31:27.361Z,27.33
2022-12-22T05:33:54.397Z,27.30
2022-12-22T05:36:21.432Z,26.93
2022-12-22T05:38:48.334Z,26.53
2022-12-22T05:41:15.291Z,27.43
2022-12-22T05:43:42.281Z,27.03
2022-12-22T05:46:11.458Z,26.20
2022-12-22T05:48:39.997Z,26.23
2022-12-22T05:51:10.413Z,26.37
2022-12-22T05:53:38.331Z,26.37
2022-12-22T05:56:05.860Z,26.23
2022-12-22T05:58:33.230Z,26.10
2022-12-22T06:01:00.975Z,26.33
2022-12-22T06:03:28.296Z,26.53
2022-12-22T06:05:55.994Z,26.13
2022-12-22T06:08:23.337Z,25.77
2022-12-22T06:10:50.616Z,26.67
2022-12-22T06:13:17.578Z,26.00
2022-12-22T06:15:44.676Z,26.27
2022-12-22T06:18:11.721Z,26.47
2022-12-22T06:20:38.545Z,25.80
2022-12-22T06:23:05.516Z,26.13
2022-12-22T06:25:32.767Z,26.07
2022-12-22T06:27:59.715Z,25.30
2022-12-22T06:30:33.014Z,24.67
2022-12-22T06:33:01.301Z,26.47
2022-12-22T06:35:28.681Z,25.07
2022-12-22T06:37:55.689Z,25.13
2022-12-22T06:40:22.553Z,25.27
2022-12-22T06:43:09.029Z,25.43
2022-12-22T06:45:41.014Z,23.40
2022-12-22T06:48:09.263Z,23.20
2022-12-22T06:50:36.511Z,24.10
2022-12-22T06:53:04.002Z,24.40
2022-12-22T06:55:31.457Z,23.73
2022-12-22T06:57:58.293Z,24.43
2022-12-22T07:00:25.323Z,23.60
2022-12-22T07:02:52.292Z,22.77
2022-12-22T07:05:19.447Z,23.50
2022-12-22T07:07:46.642Z,23.43
2022-12-22T07:10:13.514Z,23.30
2022-12-22T07:12:40.306Z,22.50
2022-12-22T07:15:07.966Z,23.60
2022-12-22T07:17:34.845Z,23.17
2022-12-22T07:20:01.768Z,23.33
2022-12-22T07:22:30.694Z,23.60
2022-12-22T07:24:59.482Z,24.13
2022-12-22T07:27:26.395Z,24.53
2022-12-22T07:29:53.215Z,23.10
2022-12-22T07:32:20.297Z,23.17
2022-12-22T07:34:47.490Z,23.10
2022-12-22T07:37:14.377Z,23.10
2022-12-22T07:39:41.548Z,24.10
2022-12-22T07:42:30.361Z,23.30
2022-12-22T07:44:58.608Z,22.47
2022-12-22T07:47:33.219Z,22.30
2022-12-22T07:50:20.623Z,21.87
2022-12-22T07:52:47.530Z,22.00
2022-12-22T07:55:14.573Z,21.60
2022-12-22T07:57:41.551Z,22.70
2022-12-22T08:00:09.934Z,23.67
2022-12-22T08:02:39.213Z,22.07
2022-12-22T08:05:07.422Z,22.87
2022-12-22T08:07:34.406Z,21.13
2022-12-22T08:10:01.297Z,22.13
2022-12-22T08:12:29.816Z,21.17
2022-12-22T08:14:56.865Z,21.50
2022-12-22T08:17:23.816Z,22.27
2022-12-22T08:19:50.677Z,21.17
2022-12-22T08:22:17.588Z,23.00
2022-12-22T08:24:44.516Z,21.10
2022-12-22T08:27:20.746Z,21.20
2022-12-22T08:29:57.266Z,20.03
2022-12-22T08:32:24.158Z,19.47
2022-12-22T08:34:52.464Z,19.43
2022-12-22T08:37:22.696Z,20.30
2022-12-22T08:39:57.688Z,19.03
2022-12-22T08:42:26.216Z,19.97
2022-12-22T08:44:53.550Z,19.37
2022-12-22T08:47:21.766Z,19.90
2022-12-22T08:49:49.748Z,19.27
2022-12-22T08:52:18.846Z,19.07
2022-12-22T08:54:46.610Z,20.37
2022-12-22T08:57:13.701Z,19.20
2022-12-22T08:59:40.639Z,20.70
2022-12-22T09:02:08.298Z,19.17
2022-12-22T09:04:35.407Z,20.70
2022-12-22T09:07:06.654Z,20.77
2022-12-22T09:09:34.668Z,20.07
2022-12-22T09:12:07.149Z,19.57
2022-12-22T09:14:37.262Z,20.97
2022-12-22T09:17:04.966Z,20.43
2022-12-22T09:19:32.183Z,22.27
2022-12-22T09:21:59.062Z,20.30
2022-12-22T09:24:26.107Z,22.67
2022-12-22T09:26:53.207Z,20.60
2022-12-22T09:29:20.146Z,21.80
2022-12-22T09:31:47.169Z,21.57
2022-12-22T09:34:18.179Z,20.87
2022-12-22T09:36:46.173Z,20.70
2022-12-22T09:39:13.129Z,20.57
2022-12-22T09:41:53.899Z,20.37
2022-12-22T09:44:33.903Z,20.93
2022-12-22T09:47:03.966Z,20.57
2022-12-22T09:49:32.997Z,26.00
2022-12-22T09:52:03.721Z,22.57
2022-12-22T09:54:31.376Z,21.13
2022-12-22T09:56:58.999Z,21.43
2022-12-22T09:59:28.553Z,20.87
2022-12-22T10:02:25.724Z,20.60
2022-12-22T10:05:30.261Z,20.67
2022-12-22T10:08:02.807Z,20.90
2022-12-22T10:10:31.712Z,20.27
2022-12-22T10:13:01.448Z,20.10
2022-12-22T10:15:37.033Z,20.90
2022-12-22T10:18:30.243Z,19.80
2022-12-22T10:21:17.624Z,21.80
2022-12-22T10:23:48.775Z,20.07
2022-12-22T10:26:29.093Z,21.43
2022-12-22T10:29:17.125Z,20.67
2022-12-22T10:32:05.197Z,20.57
2022-12-22T10:34:32.186Z,21.33
2022-12-22T10:37:04.401Z,22.13
2022-12-22T10:39:34.849Z,21.33
2022-12-22T10:42:13.881Z,22.43
2022-12-22T10:44:46.875Z,21.20
2022-12-22T10:47:24.506Z,21.57
2022-12-22T10:52:31.821Z,21.50
2022-12-22T10:55:29.824Z,22.33
2022-12-22T10:58:55.571Z,26.73
2022-12-22T11:01:41.281Z,22.20
2022-12-22T11:04:38.793Z,22.17
2022-12-22T11:07:09.379Z,22.50
2022-12-22T11:09:36.577Z,22.50
2022-12-22T11:12:23.854Z,22.33
2022-12-22T11:15:29.478Z,21.80
2022-12-22T11:18:20.539Z,27.38
2022-12-22T11:20:59.247Z,22.17
2022-12-22T11:23:53.205Z,23.40
2022-12-22T11:26:54.767Z,21.33
2022-12-22T11:29:42.770Z,20.87
2022-12-22T11:36:17.871Z,20.73
2022-12-22T11:39:06.604Z,20.23
2022-12-22T11:42:00.930Z,20.10
2022-12-22T11:44:40.486Z,20.47
2022-12-22T11:47:51.317Z,20.53
2022-12-22T11:50:57.761Z,20.43
2022-12-22T11:53:23.741Z,20.27
2022-12-22T11:56:17.929Z,21.03
2022-12-22T11:59:04.177Z,20.23
2022-12-22T12:01:50.270Z,19.80
2022-12-22T12:04:40.019Z,19.73
2022-12-22T12:07:39.593Z,19.70
2022-12-22T12:10:26.975Z,20.43
2022-12-22T12:13:02.888Z,19.80
2022-12-22T12:15:42.088Z,20.27
2022-12-22T12:19:05.235Z,19.93
2022-12-22T12:21:49.501Z,20.60
2022-12-22T12:24:53.685Z,20.63
2022-12-22T12:27:56.516Z,19.07
2022-12-22T12:30:40.163Z,19.17
2022-12-22T12:33:21.156Z,18.93
2022-12-22T12:36:21.608Z,18.27
2022-12-22T12:39:07.988Z,17.23
2022-12-22T12:42:11.294Z,17.93
2022-12-22T12:44:40.066Z,17.13
2022-12-22T12:47:24.811Z,17.20
2022-12-22T12:49:58.379Z,17.30
2022-12-22T12:52:50.423Z,18.00
2022-12-22T12:55:38.974Z,17.70
2022-12-22T12:58:12.726Z,17.17
2022-12-22T13:00:46.647Z,15.60
2022-12-22T13:03:53.188Z,15.83
2022-12-22T13:06:49.165Z,15.87
2022-12-22T13:12:54.829Z,16.70
2022-12-22T13:15:30.000Z,16.53
2022-12-22T13:17:57.833Z,17.23
2022-12-22T13:20:32.709Z,16.67
2022-12-22T13:23:09.844Z,16.50
2022-12-22T13:25:53.960Z,17.07
2022-12-22T13:28:24.466Z,18.03
2022-12-22T13:31:04.655Z,18.53
2022-12-22T13:33:38.051Z,18.13
2022-12-22T13:36:08.518Z,17.47
2022-12-22T13:38:37.546Z,18.73
2022-12-22T13:41:26.883Z,18.60
2022-12-22T13:43:59.207Z,17.87
2022-12-22T13:46:27.209Z,18.77
2022-12-22T13:48:57.098Z,18.03
2022-12-22T13:51:28.071Z,19.23
2022-12-22T13:54:11.572Z,17.97
2022-12-22T13:56:46.231Z,18.17
2022-12-22T13:59:40.612Z,18.27
2022-12-22T14:02:11.522Z,18.80
2022-12-22T14:04:51.761Z,17.90
2022-12-22T14:07:20.436Z,18.80
2022-12-22T14:09:55.061Z,18.77
2022-12-22T14:12:28.636Z,19.17
2022-12-22T14:14:57.874Z,19.13
2022-12-22T14:17:29.025Z,19.03
2022-12-22T14:19:58.622Z,19.13
2022-12-22T14:22:37.236Z,19.07
2022-12-22T14:25:44.695Z,18.43
2022-12-22T14:28:50.593Z,19.77
2022-12-22T14:32:11.931Z,18.83
2022-12-22T14:34:47.980Z,18.77
2022-12-22T14:37:33.392Z,24.03
2022-12-22T14:40:00.816Z,18.57
2022-12-22T14:42:28.767Z,19.77
2022-12-22T14:45:04.656Z,19.53
2022-12-22T14:47:40.693Z,18.33
2022-12-22T14:50:20.540Z,18.43
2022-12-22T14:52:58.895Z,19.23
2022-12-22T14:55:32.558Z,18.43
2022-12-22T14:58:04.953Z,19.97
2022-12-22T15:00:35.926Z,19.30
2022-12-22T15:03:06.828Z,19.37
2022-12-22T15:05:37.659Z,19.37
2022-12-22T15:08:08.971Z,19.93
2022-12-22T15:10:45.811Z,18.90
2022-12-22T15:13:22.635Z,18.97
2022-12-22T15:15:52.980Z,19.43
2022-12-22T15:18:26.591Z,18.93
2022-12-22T15:20:55.025Z,18.77
2022-12-22T15:23:22.008Z,19.93
2022-12-22T15:25:48.954Z,19.27
2022-12-22T15:28:16.436Z,19.37
2022-12-22T15:30:43.500Z,18.83
2022-12-22T15:33:15.703Z,19.23
2022-12-22T15:35:43.724Z,19.87
2022-12-22T15:38:19.137Z,20.43
2022-12-22T15:40:46.765Z,19.23
2022-12-22T15:46:07.607Z,19.23
2022-12-22T15:48:36.462Z,20.00
2022-12-22T15:51:05.817Z,19.77
2022-12-22T15:53:34.509Z,19.57
2022-12-22T15:56:01.956Z,19.53
2022-12-22T15:58:33.114Z,19.60
2022-12-22T16:01:02.767Z,20.57
2022-12-22T16:03:32.422Z,21.40
2022-12-22T16:06:05.119Z,21.00
2022-12-22T16:09:29.597Z,19.60
2022-12-22T16:11:57.769Z,20.63
2022-12-22T16:14:25.113Z,21.07
2022-12-22T16:16:54.455Z,21.20
2022-12-22T16:19:22.214Z,22.03
2022-12-22T16:21:53.342Z,20.67
2022-12-22T16:24:34.288Z,21.67
2022-12-22T16:27:13.656Z,22.13
2022-12-22T16:29:46.989Z,21.53
2022-12-22T16:32:23.609Z,22.00
2022-12-22T16:34:51.007Z,22.03
2022-12-22T16:37:25.284Z,21.87
2022-12-22T16:39:57.460Z,21.83
2022-12-22T16:45:26.296Z,22.97
2022-12-22T16:48:02.912Z,23.07
2022-12-22T16:50:33.808Z,23.00
2022-12-22T16:53:04.568Z,23.23
2022-12-22T16:55:47.439Z,22.90
2022-12-22T16:58:15.296Z,22.87
2022-12-22T17:01:01.597Z,23.37
2022-12-22T17:03:29.411Z,22.93
2022-12-22T17:05:59.533Z,23.20
2022-12-22T17:08:31.063Z,22.60
2022-12-22T17:11:06.419Z,23.83
2022-12-22T17:13:43.483Z,24.40
2022-12-22T17:16:20.467Z,23.80
2022-12-22T17:18:51.729Z,24.20
2022-12-22T17:21:34.540Z,23.43
2022-12-22T17:24:17.124Z,23.47
2022-12-22T17:26:50.852Z,23.90
2022-12-22T17:29:25.909Z,24.43
2022-12-22T17:32:12.809Z,23.10
2022-12-22T17:35:03.663Z,22.73
2022-12-22T17:37:31.576Z,24.30
2022-12-22T17:40:24.056Z,23.93
2022-12-22T17:42:58.949Z,23.60
2022-12-22T17:45:57.956Z,24.17
2022-12-22T17:48:40.344Z,23.13
2022-12-22T17:51:29.381Z,23.87
2022-12-22T17:54:01.673Z,24.93
2022-12-22T17:56:48.068Z,24.23
2022-12-22T17:59:28.897Z,24.93
2022-12-22T18:02:07.096Z,25.10
2022-12-22T18:04:34.639Z,24.40
2022-12-22T18:10:58.101Z,24.17
2022-12-22T18:13:26.292Z,24.47
2022-12-22T18:15:54.999Z,23.83
2022-12-22T18:18:28.435Z,25.03
2022-12-22T18:21:06.422Z,24.83
2022-12-22T18:23:36.849Z,24.37
2022-12-22T18:26:18.357Z,24.90
2022-12-22T18:28:52.255Z,24.17
2022-12-22T18:31:20.121Z,24.47
2022-12-22T18:33:47.786Z,24.40
2022-12-22T18:36:20.000Z,24.07
2022-12-22T18:38:50.268Z,25.03
2022-12-22T18:41:35.530Z,24.07
2022-12-22T18:50:54.546Z,23.90
2022-12-22T18:53:28.030Z,23.60
2022-12-22T18:55:55.508Z,23.90
2022-12-22T18:58:23.192Z,24.10
2022-12-22T19:00:51.832Z,23.57
2022-12-22T19:03:33.700Z,23.80
2022-12-22T19:06:00.773Z,23.00
2022-12-22T19:08:28.168Z,23.63
2022-12-22T19:11:05.447Z,24.60
2022-12-22T19:13:40.618Z,24.40
2022-12-22T19:16:11.644Z,23.77
2022-12-22T19:18:38.626Z,23.53
2022-12-22T19:21:05.840Z,22.63
2022-12-22T19:23:33.206Z,22.93
2022-12-22T19:26:08.511Z,22.80
2022-12-22T19:28:43.932Z,22.07
2022-12-22T19:31:23.105Z,21.60
2022-12-22T19:33:50.489Z,21.80
2022-12-22T19:36:27.528Z,21.90
2022-12-22T19:39:02.695Z,21.13
2022-12-22T19:41:57.667Z,22.17
2022-12-22T19:44:28.870Z,20.63
2022-12-22T19:47:02.678Z,20.63
2022-12-22T19:49:29.797Z,19.67
2022-12-22T19:52:01.379Z,21.10
2022-12-22T19:54:28.267Z,20.10
2022-12-22T19:56:57.396Z,19.93
2022-12-22T19:59:39.560Z,19.00
2022-12-22T20:02:22.044Z,19.57
2022-12-22T20:04:50.198Z,20.73
2022-12-22T20:07:19.702Z,19.63
2022-12-22T20:09:47.198Z,19.63
2022-12-22T20:12:39.288Z,19.77
2022-12-22T20:15:36.250Z,18.67
2022-12-22T20:19:03.758Z,18.63
2022-12-22T20:21:31.969Z,18.57
2022-12-22T20:24:00.549Z,18.53
2022-12-22T20:26:27.915Z,19.67
2022-12-22T20:28:54.835Z,18.17
2022-12-22T20:31:26.229Z,16.93
2022-12-22T20:33:55.104Z,17.20
2022-12-22T20:36:35.324Z,18.30
2022-12-22T20:39:05.119Z,17.23
2022-12-22T20:41:45.695Z,18.30
2022-12-22T20:44:18.930Z,17.67
2022-12-22T20:47:04.926Z,18.13
2022-12-22T20:50:11.819Z,16.77
2022-12-22T20:53:08.821Z,16.87
2022-12-22T20:55:43.092Z,16.63
2022-12-22T20:58:49.573Z,17.83
2022-12-22T21:01:20.260Z,17.20
2022-12-22T21:03:55.380Z,17.20
2022-12-22T21:06:44.182Z,16.70
2022-12-22T21:09:16.236Z,16.47
2022-12-22T21:12:01.530Z,16.90
2022-12-22T21:14:32.164Z,16.17
2022-12-22T21:17:03.378Z,16.83
2022-12-22T21:19:36.150Z,17.00
2022-12-22T21:22:03.142Z,16.67
2022-12-22T21:24:42.032Z,17.30
2022-12-22T21:27:23.285Z,17.27
2022-12-22T21:29:52.649Z,15.60
2022-12-22T21:32:22.667Z,16.60
2022-12-22T21:34:50.438Z,17.10
2022-12-22T21:37:20.351Z,16.77
2022-12-22T21:39:50.429Z,16.60
2022-12-22T21:42:19.993Z,16.80
2022-12-22T21:44:47.205Z,17.47
2022-12-22T21:47:18.521Z,16.67
2022-12-22T21:49:45.804Z,16.80
2022-12-22T21:52:16.193Z,17.03
2022-12-22T21:54:43.405Z,16.43
2022-12-22T21:57:16.093Z,16.23
2022-12-22T21:59:43.330Z,16.13
2022-12-22T22:02:19.571Z,16.57
2022-12-22T22:04:54.131Z,16.47
2022-12-22T22:07:22.728Z,16.27
2022-12-22T22:09:49.987Z,16.90
2022-12-22T22:12:43.248Z,17.10
2022-12-22T22:15:16.804Z,16.77
2022-12-22T22:17:45.083Z,17.00
2022-12-22T22:20:20.152Z,17.77
2022-12-22T22:22:49.666Z,16.53
2022-12-22T22:25:25.497Z,17.17
2022-12-22T22:27:53.248Z,17.00
2022-12-22T22:30:33.514Z,18.37
2022-12-22T22:33:06.769Z,18.17
2022-12-22T22:35:33.937Z,18.30
2022-12-22T22:38:01.485Z,18.27
2022-12-22T22:40:28.848Z,19.67
2022-12-22T22:42:57.317Z,19.60
2022-12-22T22:45:24.672Z,19.53
2022-12-22T22:47:54.232Z,19.70
2022-12-22T22:50:22.867Z,19.77
2022-12-22T22:52:50.319Z,19.77
2022-12-22T22:55:17.619Z,19.30
2022-12-22T22:57:44.753Z,20.10
2022-12-22T23:00:15.389Z,19.77
2022-12-22T23:02:43.019Z,19.30
2022-12-22T23:05:14.231Z,19.53
2022-12-22T23:07:45.953Z,20.43
2022-12-22T23:10:13.309Z,19.57
2022-12-22T23:12:40.967Z,20.97
2022-12-22T23:15:08.575Z,21.03
2022-12-22T23:17:39.211Z,21.07
2022-12-22T23:20:11.732Z,21.00
2022-12-22T23:22:38.928Z,20.47
2022-12-22T23:25:06.567Z,20.37
2022-12-22T23:27:33.486Z,20.23
2022-12-22T23:30:06.053Z,20.37
2022-12-22T23:32:36.151Z,21.07
2022-12-22T23:35:03.178Z,19.90
2022-12-22T23:37:30.051Z,20.17
2022-12-22T23:40:05.823Z,20.00
2022-12-22T23:42:43.792Z,21.27
2022-12-22T23:45:11.096Z,20.20
2022-12-22T23:47:38.293Z,19.77
2022-12-22T23:50:05.807Z,21.67
2022-12-22T23:52:32.870Z,20.50
2022-12-22T23:54:59.804Z,20.60
2022-12-22T23:57:26.770Z,20.10
2022-12-22T23:59:54.875Z,19.63
